createdAt,value
2023-02-27T00:00:37.596Z,9.443603
2023-02-27T00:01:37.489Z,9.443622
2023-02-27T00:02:37.569Z,9.443673
2023-02-27T00:03:37.583Z,9.443639
2023-02-27T00:04:37.541Z,9.443634
2023-02-27T00:05:37.505Z,9.443633
2023-02-27T00:06:37.497Z,9.443707
2023-02-27T00:07:37.478Z,9.443701
2023-02-27T00:08:37.530Z,9.443633
2023-02-27T00:09:37.472Z,9.443603
2023-02-27T00:10:37.507Z,9.443588
2023-02-27T00:11:37.480Z,9.443751
2023-02-27T00:12:37.483Z,9.443642
2023-02-27T00:13:37.421Z,9.443621
2023-02-27T00:14:37.472Z,9.443647
2023-02-27T00:15:37.422Z,9.443661
2023-02-27T00:16:37.502Z,9.443705
2023-02-27T00:17:37.495Z,9.443790
2023-02-27T00:18:37.435Z,9.443707
2023-02-27T00:19:37.443Z,9.443691
2023-02-27T00:20:37.401Z,9.443718
2023-02-27T00:21:38.205Z,9.443717
2023-02-27T00:22:37.419Z,9.443797
2023-02-27T00:23:37.381Z,9.443670
2023-02-27T00:24:38.385Z,9.443563
2023-02-27T00:25:37.410Z,9.443642
2023-02-27T00:26:37.395Z,9.443682
2023-02-27T00:27:37.351Z,9.443721
2023-02-27T00:28:37.353Z,9.443817
2023-02-27T00:29:37.348Z,9.443690
2023-02-27T00:30:37.384Z,9.443675
2023-02-27T00:31:37.395Z,9.443592
2023-02-27T00:32:37.351Z,9.443686
2023-02-27T00:33:37.327Z,9.443645
2023-02-27T00:34:38.332Z,9.443686
2023-02-27T00:35:37.349Z,9.443574
2023-02-27T00:36:37.339Z,9.443489
2023-02-27T00:37:37.335Z,9.443521
2023-02-27T00:38:37.349Z,9.443611
2023-02-27T00:39:37.284Z,9.443712
2023-02-27T00:40:37.315Z,9.443799
2023-02-27T00:41:37.309Z,9.443842
2023-02-27T00:42:37.300Z,9.443789
2023-02-27T00:43:37.291Z,9.443736
2023-02-27T00:44:37.255Z,9.443704
2023-02-27T00:45:37.288Z,9.443619
2023-02-27T00:46:37.317Z,9.443598
2023-02-27T00:47:37.301Z,9.443745
2023-02-27T00:48:37.243Z,9.443737
2023-02-27T00:49:37.231Z,9.443632
2023-02-27T00:50:37.275Z,9.443732
2023-02-27T00:51:37.297Z,9.443599
2023-02-27T00:52:38.426Z,9.443609
2023-02-27T00:53:37.213Z,9.443764
2023-02-27T00:54:37.250Z,9.443602
2023-02-27T00:55:37.262Z,9.443610
2023-02-27T00:56:37.208Z,9.443514
2023-02-27T00:57:37.243Z,9.443563
2023-02-27T00:58:37.202Z,9.443676
2023-02-27T00:59:37.239Z,9.443672
2023-02-27T01:00:37.280Z,9.443759
2023-02-27T01:01:37.208Z,9.443752
2023-02-27T01:02:37.206Z,9.443740
2023-02-27T01:03:37.200Z,9.443789
2023-02-27T01:04:38.134Z,9.443718
2023-02-27T01:05:37.150Z,9.443776
2023-02-27T01:06:37.171Z,9.443768
2023-02-27T01:07:37.230Z,9.443628
2023-02-27T01:08:37.183Z,9.443829
2023-02-27T01:09:37.230Z,9.443722
2023-02-27T01:10:37.159Z,9.443715
2023-02-27T01:11:37.189Z,9.443829
2023-02-27T01:12:37.140Z,9.443846
2023-02-27T01:13:37.143Z,9.443817
2023-02-27T01:14:37.138Z,9.443736
2023-02-27T01:15:37.160Z,9.443691
2023-02-27T01:16:37.175Z,9.443732
2023-02-27T01:17:37.196Z,9.443816
2023-02-27T01:18:37.105Z,9.443769
2023-02-27T01:19:37.101Z,9.443758
2023-02-27T01:20:37.157Z,9.443761
2023-02-27T01:21:37.147Z,9.443681
2023-02-27T01:22:37.193Z,9.443711
2023-02-27T01:23:37.121Z,9.443813
2023-02-27T01:24:37.106Z,9.443834
2023-02-27T01:25:37.784Z,9.443795
2023-02-27T01:26:37.054Z,9.443822
2023-02-27T01:27:37.047Z,9.443871
2023-02-27T01:28:37.130Z,9.443742
2023-02-27T01:29:37.054Z,9.443704
2023-02-27T01:30:37.047Z,9.443763
2023-02-27T01:31:37.110Z,9.443714
2023-02-27T01:32:37.046Z,9.443688
2023-02-27T01:33:37.019Z,9.443705
2023-02-27T01:34:37.044Z,9.443750
2023-02-27T01:35:37.009Z,9.443723
2023-02-27T01:36:37.022Z,9.443698
2023-02-27T01:37:37.039Z,9.443706
2023-02-27T01:38:37.005Z,9.443784
2023-02-27T01:39:36.997Z,9.443755
2023-02-27T01:40:36.999Z,9.443705
2023-02-27T01:41:37.035Z,9.443732
2023-02-27T01:42:37.053Z,9.443707
2023-02-27T01:43:36.985Z,9.443728
2023-02-27T01:44:36.989Z,9.443731
2023-02-27T01:45:37.047Z,9.443814
2023-02-27T01:46:36.988Z,9.443751
2023-02-27T01:47:36.941Z,9.443694
2023-02-27T01:48:36.966Z,9.443697
2023-02-27T01:49:36.937Z,9.443726
2023-02-27T01:50:37.941Z,9.443871
2023-02-27T01:51:36.961Z,9.443712
2023-02-27T01:52:36.972Z,9.443760
2023-02-27T01:53:37.734Z,9.443679
2023-02-27T01:54:36.915Z,9.443643
2023-02-27T01:55:36.895Z,9.443610
2023-02-27T01:56:37.637Z,9.443648
2023-02-27T01:57:36.962Z,9.443672
2023-02-27T01:58:36.911Z,9.443748
2023-02-27T01:59:37.631Z,9.443604
2023-02-27T02:00:36.893Z,9.443727
2023-02-27T02:01:36.975Z,9.443604
2023-02-27T02:02:36.988Z,9.443572
2023-02-27T02:03:36.906Z,9.443525
2023-02-27T02:04:36.856Z,9.443623
2023-02-27T02:05:36.871Z,9.443596
2023-02-27T02:06:36.852Z,9.443578
2023-02-27T02:07:36.833Z,9.443592
2023-02-27T02:08:36.879Z,9.443596
2023-02-27T02:09:36.822Z,9.443501
2023-02-27T02:10:36.831Z,9.443652
2023-02-27T02:11:36.832Z,9.443652
2023-02-27T02:12:36.809Z,9.443624
2023-02-27T02:13:36.830Z,9.443623
2023-02-27T02:14:36.802Z,9.443764
2023-02-27T02:15:36.812Z,9.443588
2023-02-27T02:16:36.828Z,9.443524
2023-02-27T02:17:36.795Z,9.443624
2023-02-27T02:18:36.842Z,9.443571
2023-02-27T02:19:36.809Z,9.443535
2023-02-27T02:20:36.777Z,9.443573
2023-02-27T02:21:37.688Z,9.443600
2023-02-27T02:22:36.770Z,9.443670
2023-02-27T02:23:36.764Z,9.443692
2023-02-27T02:24:36.782Z,9.443592
2023-02-27T02:25:36.752Z,9.443669
2023-02-27T02:26:36.759Z,9.443787
2023-02-27T02:27:36.737Z,9.443707
2023-02-27T02:28:36.737Z,9.443707
2023-02-27T02:29:36.727Z,9.443688
2023-02-27T02:30:36.857Z,9.443731
2023-02-27T02:31:36.805Z,9.443747
2023-02-27T02:32:36.721Z,9.443705
2023-02-27T02:33:36.693Z,9.443737
2023-02-27T02:34:36.688Z,9.443810
2023-02-27T02:35:36.802Z,9.443773
2023-02-27T02:36:36.709Z,9.443754
2023-02-27T02:37:36.681Z,9.443697
2023-02-27T02:38:36.690Z,9.443663
2023-02-27T02:39:36.686Z,9.443765
2023-02-27T02:40:36.680Z,9.443757
2023-02-27T02:41:36.691Z,9.443814
2023-02-27T02:42:36.685Z,9.443794
2023-02-27T02:43:36.663Z,9.443780
2023-02-27T02:44:36.666Z,9.443723
2023-02-27T02:45:36.745Z,9.443732
2023-02-27T02:46:36.638Z,9.443784
2023-02-27T02:47:36.651Z,9.443738
2023-02-27T02:48:36.647Z,9.443717
2023-02-27T02:49:36.660Z,9.443752
2023-02-27T02:50:37.182Z,9.443750
2023-02-27T02:51:36.632Z,9.443704
2023-02-27T02:52:36.646Z,9.443622
2023-02-27T02:53:37.605Z,9.443572
2023-02-27T02:54:37.594Z,9.443602
2023-02-27T02:55:36.633Z,9.443644
2023-02-27T02:56:36.619Z,9.443691
2023-02-27T02:57:36.584Z,9.443739
2023-02-27T02:58:36.579Z,9.443700
2023-02-27T02:59:36.572Z,9.443670
2023-02-27T03:00:36.569Z,9.443594
2023-02-27T03:01:36.624Z,9.443621
2023-02-27T03:02:36.565Z,9.443598
2023-02-27T03:03:36.571Z,9.443848
2023-02-27T03:04:36.639Z,9.443930
2023-02-27T03:05:36.526Z,9.443837
2023-02-27T03:06:36.564Z,9.443697
2023-02-27T03:07:36.630Z,9.443586
2023-02-27T03:08:36.540Z,9.443532
2023-02-27T03:09:36.522Z,9.443592
2023-02-27T03:10:36.552Z,9.443499
2023-02-27T03:11:36.523Z,9.443512
2023-02-27T03:12:36.543Z,9.443501
2023-02-27T03:13:36.507Z,9.443420
2023-02-27T03:14:36.526Z,9.443205
2023-02-27T03:15:36.518Z,9.443731
2023-02-27T03:16:36.497Z,9.443675
2023-02-27T03:17:36.514Z,9.443827
2023-02-27T03:18:36.480Z,9.443831
2023-02-27T03:19:36.473Z,9.443795
2023-02-27T03:20:36.553Z,9.443819
2023-02-27T03:21:36.502Z,9.443725
2023-02-27T03:22:36.462Z,9.443839
2023-02-27T03:23:36.493Z,9.443813
2023-02-27T03:24:36.468Z,9.443715
2023-02-27T03:25:36.474Z,9.443694
2023-02-27T03:26:36.447Z,9.443721
2023-02-27T03:27:36.462Z,9.443754
2023-02-27T03:28:36.446Z,9.443779
2023-02-27T03:29:36.438Z,9.443774
2023-02-27T03:30:36.483Z,9.443640
2023-02-27T03:31:36.515Z,9.443392
2023-02-27T03:32:36.456Z,9.443510
2023-02-27T03:33:36.414Z,9.443519
2023-02-27T03:34:36.424Z,9.443599
2023-02-27T03:35:36.373Z,9.443686
2023-02-27T03:36:36.377Z,9.443705
2023-02-27T03:37:36.380Z,9.443666
2023-02-27T03:38:36.374Z,9.443629
2023-02-27T03:39:36.408Z,9.443624
2023-02-27T03:40:36.389Z,9.443699
2023-02-27T03:41:36.354Z,9.443728
2023-02-27T03:42:36.360Z,9.443755
2023-02-27T03:43:36.402Z,9.443577
2023-02-27T03:44:36.346Z,9.443634
2023-02-27T03:45:36.343Z,9.443694
2023-02-27T03:46:36.362Z,9.443724
2023-02-27T03:47:36.325Z,9.443779
2023-02-27T03:48:37.353Z,9.443774
2023-02-27T03:49:36.311Z,9.443697
2023-02-27T03:50:36.297Z,9.443727
2023-02-27T03:51:36.354Z,9.443711
2023-02-27T03:52:36.291Z,9.443760
2023-02-27T03:53:36.315Z,9.443767
2023-02-27T03:54:36.345Z,9.443769
2023-02-27T03:55:36.286Z,9.443792
2023-02-27T03:56:36.286Z,9.443771
2023-02-27T03:57:36.302Z,9.443710
2023-02-27T03:58:36.287Z,9.443745
2023-02-27T03:59:36.294Z,9.443769
2023-02-27T04:00:36.290Z,9.443826
2023-02-27T04:01:36.280Z,9.443753
2023-02-27T04:02:36.424Z,9.443659
2023-02-27T04:03:36.264Z,9.443806
2023-02-27T04:04:36.244Z,9.443933
2023-02-27T04:05:36.290Z,9.444003
2023-02-27T04:06:36.231Z,9.443949
2023-02-27T04:07:36.227Z,9.443817
2023-02-27T04:08:36.279Z,9.443945
2023-02-27T04:09:36.239Z,9.443802
2023-02-27T04:10:36.264Z,9.443826
2023-02-27T04:11:36.230Z,9.443790
2023-02-27T04:12:36.203Z,9.443765
2023-02-27T04:13:36.225Z,9.443772
2023-02-27T04:14:36.221Z,9.443830
2023-02-27T04:15:36.206Z,9.443880
2023-02-27T04:16:36.206Z,9.443873
2023-02-27T04:17:36.182Z,9.443838
2023-02-27T04:18:36.177Z,9.443848
2023-02-27T04:19:36.193Z,9.443834
2023-02-27T04:20:36.158Z,9.443836
2023-02-27T04:21:36.176Z,9.443925
2023-02-27T04:22:36.147Z,9.443911
2023-02-27T04:23:36.148Z,9.443886
2023-02-27T04:24:36.166Z,9.443879
2023-02-27T04:25:36.146Z,9.443924
2023-02-27T04:26:36.140Z,9.443840
2023-02-27T04:27:36.132Z,9.443813
2023-02-27T04:28:36.129Z,9.443865
2023-02-27T04:29:36.138Z,9.443828
2023-02-27T04:30:36.118Z,9.443804
2023-02-27T04:31:36.236Z,9.443804
2023-02-27T04:32:36.275Z,9.443843
2023-02-27T04:33:36.086Z,9.443805
2023-02-27T04:34:36.115Z,9.443811
2023-02-27T04:35:36.081Z,9.443847
2023-02-27T04:36:36.113Z,9.443791
2023-02-27T04:37:36.121Z,9.443691
2023-02-27T04:38:36.097Z,9.443725
2023-02-27T04:39:37.101Z,9.443745
2023-02-27T04:40:36.112Z,9.443771
2023-02-27T04:41:36.080Z,9.443701
2023-02-27T04:42:36.052Z,9.443769
2023-02-27T04:43:36.054Z,9.443754
2023-02-27T04:44:36.063Z,9.443719
2023-02-27T04:45:36.199Z,9.443729
2023-02-27T04:46:36.033Z,9.443770
2023-02-27T04:47:36.040Z,9.443659
2023-02-27T04:48:36.031Z,9.443710
2023-02-27T04:49:36.067Z,9.443682
2023-02-27T04:50:36.100Z,9.443787
2023-02-27T04:51:36.057Z,9.443687
2023-02-27T04:52:36.011Z,9.443752
2023-02-27T04:53:36.025Z,9.443780
2023-02-27T04:54:35.997Z,9.443704
2023-02-27T04:55:36.015Z,9.443683
2023-02-27T04:56:35.984Z,9.443612
2023-02-27T04:57:36.022Z,9.443645
2023-02-27T04:58:35.967Z,9.443743
2023-02-27T04:59:35.954Z,9.443690
2023-02-27T05:00:35.964Z,9.443687
2023-02-27T05:01:35.982Z,9.443690
2023-02-27T05:02:36.171Z,9.443698
2023-02-27T05:03:35.947Z,9.443688
2023-02-27T05:04:35.980Z,9.443683
2023-02-27T05:05:35.982Z,9.443706
2023-02-27T05:06:35.926Z,9.443715
2023-02-27T05:07:35.934Z,9.443689
2023-02-27T05:08:35.927Z,9.443733
2023-02-27T05:09:35.915Z,9.443709
2023-02-27T05:10:35.928Z,9.443857
2023-02-27T05:11:35.896Z,9.443875
2023-02-27T05:12:35.911Z,9.443755
2023-02-27T05:13:35.886Z,9.443720
2023-02-27T05:14:35.889Z,9.443639
2023-02-27T05:15:36.008Z,9.443696
2023-02-27T05:16:35.935Z,9.443715
2023-02-27T05:17:35.898Z,9.443746
2023-02-27T05:18:35.873Z,9.443784
2023-02-27T05:19:35.886Z,9.443825
2023-02-27T05:20:35.864Z,9.443756
2023-02-27T05:21:35.865Z,9.443814
2023-02-27T05:22:35.873Z,9.443788
2023-02-27T05:23:35.831Z,9.443734
2023-02-27T05:24:35.854Z,9.443719
2023-02-27T05:25:35.858Z,9.443690
2023-02-27T05:26:35.847Z,9.443613
2023-02-27T05:27:35.821Z,9.443678
2023-02-27T05:28:35.825Z,9.443717
2023-02-27T05:29:35.827Z,9.443731
2023-02-27T05:30:35.794Z,9.443726
2023-02-27T05:31:35.809Z,9.443743
2023-02-27T05:32:35.917Z,9.443748
2023-02-27T05:33:35.782Z,9.443733
2023-02-27T05:34:35.797Z,9.443722
2023-02-27T05:35:35.880Z,9.443788
2023-02-27T05:36:35.767Z,9.443739
2023-02-27T05:37:35.810Z,9.443717
2023-02-27T05:38:35.765Z,9.443681
2023-02-27T05:39:35.774Z,9.443707
2023-02-27T05:40:35.741Z,9.443679
2023-02-27T05:41:36.665Z,9.443677
2023-02-27T05:42:35.760Z,9.443656
2023-02-27T05:43:35.749Z,9.443675
2023-02-27T05:44:35.841Z,9.443655
2023-02-27T05:45:35.736Z,9.443657
2023-02-27T05:46:35.726Z,9.443655
2023-02-27T05:47:35.717Z,9.443673
2023-02-27T05:48:35.754Z,9.443678
2023-02-27T05:49:35.731Z,9.443665
2023-02-27T05:50:35.668Z,9.443610
2023-02-27T05:51:35.726Z,9.443627
2023-02-27T05:52:35.753Z,9.443615
2023-02-27T05:53:35.684Z,9.443639
2023-02-27T05:54:35.752Z,9.443688
2023-02-27T05:55:35.744Z,9.443694
2023-02-27T05:56:35.693Z,9.443697
2023-02-27T05:57:35.654Z,9.443721
2023-02-27T05:58:35.713Z,9.443720
2023-02-27T05:59:35.653Z,9.443746
2023-02-27T06:00:35.669Z,9.443743
2023-02-27T06:01:37.191Z,9.443728
2023-02-27T06:02:35.665Z,9.443701
2023-02-27T06:03:35.780Z,9.443670
2023-02-27T06:04:35.622Z,9.443725
2023-02-27T06:05:35.629Z,9.443734
2023-02-27T06:06:35.636Z,9.443698
2023-02-27T06:07:35.622Z,9.443775
2023-02-27T06:08:35.617Z,9.443779
2023-02-27T06:09:35.639Z,9.443759
2023-02-27T06:10:35.565Z,9.443779
2023-02-27T06:11:35.605Z,9.443731
2023-02-27T06:12:35.593Z,9.443756
2023-02-27T06:13:35.578Z,9.443786
2023-02-27T06:14:35.563Z,9.443767
2023-02-27T06:15:35.604Z,9.443747
2023-02-27T06:16:35.574Z,9.443792
2023-02-27T06:17:35.539Z,9.443834
2023-02-27T06:18:35.546Z,9.443833
2023-02-27T06:19:35.537Z,9.443811
2023-02-27T06:20:35.615Z,9.443805
2023-02-27T06:21:35.518Z,9.443803
2023-02-27T06:22:35.528Z,9.443815
2023-02-27T06:23:35.599Z,9.443839
2023-02-27T06:24:35.514Z,9.443812
2023-02-27T06:25:35.496Z,9.443757
2023-02-27T06:26:35.524Z,9.443807
2023-02-27T06:27:35.529Z,9.443807
2023-02-27T06:28:35.512Z,9.443792
2023-02-27T06:29:35.497Z,9.443725
2023-02-27T06:30:35.532Z,9.443711
2023-02-27T06:31:35.482Z,9.443709
2023-02-27T06:32:35.481Z,9.443714
2023-02-27T06:33:35.484Z,9.443654
2023-02-27T06:34:35.470Z,9.443691
2023-02-27T06:35:36.218Z,9.443685
2023-02-27T06:36:35.496Z,9.443785
2023-02-27T06:37:35.448Z,9.443881
2023-02-27T06:38:35.444Z,9.443760
2023-02-27T06:39:35.478Z,9.443700
2023-02-27T06:40:35.455Z,9.443749
2023-02-27T06:41:35.411Z,9.443715
2023-02-27T06:42:35.409Z,9.443718
2023-02-27T06:43:35.409Z,9.443634
2023-02-27T06:44:35.430Z,9.443641
2023-02-27T06:45:35.420Z,9.443668
2023-02-27T06:46:35.513Z,9.443670
2023-02-27T06:47:35.396Z,9.443687
2023-02-27T06:48:35.405Z,9.443755
2023-02-27T06:49:35.396Z,9.443738
2023-02-27T06:50:35.383Z,9.443724
2023-02-27T06:51:35.356Z,9.443748
2023-02-27T06:52:35.339Z,9.443725
2023-02-27T06:53:35.370Z,9.443811
2023-02-27T06:54:35.338Z,9.443795
2023-02-27T06:55:35.332Z,9.443858
2023-02-27T06:56:35.355Z,9.443718
2023-02-27T06:57:35.358Z,9.443688
2023-02-27T06:58:35.319Z,9.443692
2023-02-27T06:59:35.305Z,9.443674
2023-02-27T07:00:35.334Z,9.443727
2023-02-27T07:01:35.338Z,9.443714
2023-02-27T07:02:35.301Z,9.443718
2023-02-27T07:03:35.334Z,9.443753
2023-02-27T07:04:35.311Z,9.443782
2023-02-27T07:05:35.292Z,9.443752
2023-02-27T07:07:33.798Z,9.443748
2023-02-27T07:07:37.849Z,9.443687
2023-02-27T07:08:36.279Z,9.443750
2023-02-27T07:09:35.260Z,9.443750
2023-02-27T07:10:35.260Z,9.443765
2023-02-27T07:11:35.241Z,9.443717
2023-02-27T07:12:35.281Z,9.443769
2023-02-27T07:13:35.250Z,9.443751
2023-02-27T07:14:35.232Z,9.443773
2023-02-27T07:15:35.302Z,9.443793
2023-02-27T07:16:35.238Z,9.443743
2023-02-27T07:17:35.220Z,9.443695
2023-02-27T07:18:35.208Z,9.443653
2023-02-27T07:19:35.224Z,9.443452
2023-02-27T07:20:35.228Z,9.443770
2023-02-27T07:21:35.205Z,9.443693
2023-02-27T07:22:35.211Z,9.443815
2023-02-27T07:23:35.198Z,9.443763
2023-02-27T07:24:35.201Z,9.443707
2023-02-27T07:25:35.183Z,9.443694
2023-02-27T07:26:35.172Z,9.443739
2023-02-27T07:27:35.192Z,9.443679
2023-02-27T07:28:35.189Z,9.443707
2023-02-27T07:29:35.198Z,9.443686
2023-02-27T07:30:35.148Z,9.443695
2023-02-27T07:31:35.182Z,9.443733
2023-02-27T07:32:35.125Z,9.443646
2023-02-27T07:33:36.131Z,9.443531
2023-02-27T07:34:35.153Z,9.443502
2023-02-27T07:35:35.151Z,9.443763
2023-02-27T07:36:35.103Z,9.443766
2023-02-27T07:37:35.113Z,9.443813
2023-02-27T07:38:35.094Z,9.443786
2023-02-27T07:39:35.089Z,9.443717
2023-02-27T07:40:35.114Z,9.443676
2023-02-27T07:41:35.106Z,9.443759
2023-02-27T07:42:35.146Z,9.443693
2023-02-27T07:43:35.080Z,9.443661
2023-02-27T07:44:35.074Z,9.443581
2023-02-27T07:45:35.061Z,9.443603
2023-02-27T07:46:35.150Z,9.443670
2023-02-27T07:47:35.061Z,9.443653
2023-02-27T07:48:35.073Z,9.443709
2023-02-27T07:49:35.033Z,9.443678
2023-02-27T07:50:35.057Z,9.443608
2023-02-27T07:51:35.077Z,9.443662
2023-02-27T07:52:35.035Z,9.443591
2023-02-27T07:53:35.019Z,9.443673
2023-02-27T07:54:35.708Z,9.443683
2023-02-27T07:55:34.997Z,9.443729
2023-02-27T07:56:35.010Z,9.443747
2023-02-27T07:57:35.040Z,9.443702
2023-02-27T07:58:34.985Z,9.443654
2023-02-27T07:59:34.998Z,9.443649
2023-02-27T08:00:34.986Z,9.443715
2023-02-27T08:01:34.965Z,9.443691
2023-02-27T08:02:35.008Z,9.443707
2023-02-27T08:03:34.968Z,9.443705
2023-02-27T08:04:34.996Z,9.443728
2023-02-27T08:05:34.954Z,9.443771
2023-02-27T08:06:34.934Z,9.443720
2023-02-27T08:07:34.922Z,9.443687
2023-02-27T08:08:34.951Z,9.443656
2023-02-27T08:09:34.901Z,9.443616
2023-02-27T08:10:34.908Z,9.443760
2023-02-27T08:11:34.908Z,9.443698
2023-02-27T08:12:34.905Z,9.443694
2023-02-27T08:14:02.080Z,9.443715
2023-02-27T08:14:36.887Z,9.443736
2023-02-27T08:15:34.891Z,9.443699
2023-02-27T08:16:34.895Z,9.443604
2023-02-27T08:17:34.885Z,9.443644
2023-02-27T08:18:35.105Z,9.443584
2023-02-27T08:19:35.870Z,9.443743
2023-02-27T08:20:34.858Z,9.443661
2023-02-27T08:21:34.907Z,9.443632
2023-02-27T08:22:34.885Z,9.443550
2023-02-27T08:23:34.907Z,9.443569
2023-02-27T08:24:34.907Z,9.443460
2023-02-27T08:25:34.849Z,9.443611
2023-02-27T08:26:34.875Z,9.443688
2023-02-27T08:27:34.813Z,9.443680
2023-02-27T08:28:34.828Z,9.443748
2023-02-27T08:29:34.850Z,9.443755
2023-02-27T08:30:34.813Z,9.443691
2023-02-27T08:31:34.783Z,9.443737
2023-02-27T08:32:34.841Z,9.443753
2023-02-27T08:33:34.776Z,9.443700
2023-02-27T08:34:34.769Z,9.443729
2023-02-27T08:35:34.817Z,9.443710
2023-02-27T08:36:35.741Z,9.443707
2023-02-27T08:37:34.760Z,9.443639
2023-02-27T08:38:34.751Z,9.443733
2023-02-27T08:39:34.731Z,9.443712
2023-02-27T08:40:34.731Z,9.443706
2023-02-27T08:41:34.778Z,9.443724
2023-02-27T08:42:34.694Z,9.443708
2023-02-27T08:43:34.705Z,9.443644
2023-02-27T08:44:34.689Z,9.443727
2023-02-27T08:45:34.724Z,9.443683
2023-02-27T08:46:34.709Z,9.443688
2023-02-27T08:47:34.677Z,9.443681
2023-02-27T08:48:34.681Z,9.443685
2023-02-27T08:49:34.687Z,9.443689
2023-02-27T08:50:34.655Z,9.443696
2023-02-27T08:51:35.662Z,9.443686
2023-02-27T08:52:34.679Z,9.443725
2023-02-27T08:53:34.668Z,9.443674
2023-02-27T08:54:34.697Z,9.443721
2023-02-27T08:55:34.634Z,9.443812
2023-02-27T08:56:34.689Z,9.443752
2023-02-27T08:57:34.629Z,9.443738
2023-02-27T08:58:34.606Z,9.443719
2023-02-27T08:59:34.595Z,9.443765
2023-02-27T09:00:34.655Z,9.443801
2023-02-27T09:01:34.772Z,9.443798
2023-02-27T09:02:34.598Z,9.443784
2023-02-27T09:03:34.634Z,9.443756
2023-02-27T09:04:34.556Z,9.443771
2023-02-27T09:05:34.559Z,9.443773
2023-02-27T09:06:34.552Z,9.443812
2023-02-27T09:07:34.600Z,9.443805
2023-02-27T09:08:34.562Z,9.443774
2023-02-27T09:09:34.518Z,9.443754
2023-02-27T09:10:34.563Z,9.443729
2023-02-27T09:11:35.341Z,9.443776
2023-02-27T09:12:34.510Z,9.443773
2023-02-27T09:13:34.493Z,9.443727
2023-02-27T09:14:34.520Z,9.443745
2023-02-27T09:15:34.479Z,9.443758
2023-02-27T09:16:34.547Z,9.443783
2023-02-27T09:17:34.513Z,9.443771
2023-02-27T09:18:34.477Z,9.443749
2023-02-27T09:19:34.489Z,9.443654
2023-02-27T09:20:34.457Z,9.443711
2023-02-27T09:21:34.451Z,9.443732
2023-02-27T09:22:34.510Z,9.443753
2023-02-27T09:23:34.427Z,9.443748
2023-02-27T09:24:34.455Z,9.443695
2023-02-27T09:25:34.505Z,9.443610
2023-02-27T09:26:43.665Z,9.443664
2023-02-27T09:27:36.418Z,9.443659
2023-02-27T09:28:34.501Z,9.443668
2023-02-27T09:29:34.394Z,9.443620
2023-02-27T09:30:34.525Z,9.443630
2023-02-27T09:31:34.798Z,9.443699
2023-02-27T09:32:34.519Z,9.443782
2023-02-27T09:33:34.366Z,9.443682
2023-02-27T09:34:34.412Z,9.443716
2023-02-27T09:35:34.392Z,9.443596
2023-02-27T09:36:34.379Z,9.443733
2023-02-27T09:37:34.345Z,9.443540
2023-02-27T09:38:34.338Z,9.443631
2023-02-27T09:39:34.345Z,9.443581
2023-02-27T09:40:34.347Z,9.443549
2023-02-27T09:41:34.336Z,9.443442
2023-02-27T09:42:34.315Z,9.443496
2023-02-27T09:43:34.351Z,9.443385
2023-02-27T09:44:45.613Z,9.443540
2023-02-27T09:45:36.342Z,9.443414
2023-02-27T09:46:34.285Z,9.443477
2023-02-27T09:47:34.267Z,9.443527
2023-02-27T09:48:34.290Z,9.443634
2023-02-27T09:49:34.269Z,9.443756
2023-02-27T09:50:34.250Z,9.443580
2023-02-27T09:51:34.303Z,9.443544
2023-02-27T09:52:34.259Z,9.443627
2023-02-27T09:53:34.271Z,9.443589
2023-02-27T09:54:34.317Z,9.443642
2023-02-27T09:55:34.228Z,9.443561
2023-02-27T09:56:34.242Z,9.443624
2023-02-27T09:57:34.239Z,9.443564
2023-02-27T09:58:34.225Z,9.443634
2023-02-27T09:59:34.230Z,9.443628
2023-02-27T10:00:34.260Z,9.443692
2023-02-27T10:01:34.231Z,9.443597
2023-02-27T10:02:34.276Z,9.443699
2023-02-27T10:03:34.382Z,9.443727
2023-02-27T10:04:34.193Z,9.443604
2023-02-27T10:05:34.175Z,9.443686
2023-02-27T10:06:34.200Z,9.443606
2023-02-27T10:07:34.173Z,9.443698
2023-02-27T10:08:35.128Z,9.443773
2023-02-27T10:09:34.134Z,9.443720
2023-02-27T10:10:34.131Z,9.443611
2023-02-27T10:11:34.132Z,9.443584
2023-02-27T10:12:34.145Z,9.443606
2023-02-27T10:13:34.104Z,9.443542
2023-02-27T10:14:34.108Z,9.443521
2023-02-27T10:15:34.116Z,9.443621
2023-02-27T10:16:34.126Z,9.443652
2023-02-27T10:17:34.103Z,9.443594
2023-02-27T10:18:34.066Z,9.443545
2023-02-27T10:19:34.073Z,9.443730
2023-02-27T10:20:34.113Z,9.443674
2023-02-27T10:21:34.276Z,9.443625
2023-02-27T10:22:34.068Z,9.443578
2023-02-27T10:23:34.052Z,9.443617
2023-02-27T10:24:34.049Z,9.443603
2023-02-27T10:25:34.024Z,9.443601
2023-02-27T10:26:34.075Z,9.443500
2023-02-27T10:27:34.018Z,9.443498
2023-02-27T10:28:34.000Z,9.443645
2023-02-27T10:29:34.011Z,9.443663
2023-02-27T10:30:35.111Z,9.443604
2023-02-27T10:31:35.152Z,9.443530
2023-02-27T10:32:34.010Z,9.443647
2023-02-27T10:33:33.981Z,9.443630
2023-02-27T10:34:34.031Z,9.443697
2023-02-27T10:35:33.999Z,9.443531
2023-02-27T10:36:34.875Z,9.443549
2023-02-27T10:37:34.989Z,9.443549
2023-02-27T10:38:33.952Z,9.443614
2023-02-27T10:39:33.953Z,9.443596
2023-02-27T10:40:33.941Z,9.443703
2023-02-27T10:41:33.942Z,9.443741
2023-02-27T10:42:34.682Z,9.443714
2023-02-27T10:43:33.978Z,9.443683
2023-02-27T10:44:34.525Z,9.443730
2023-02-27T10:45:33.906Z,9.443718
2023-02-27T10:46:33.936Z,9.443725
2023-02-27T10:47:33.910Z,9.443550
2023-02-27T10:48:33.927Z,9.443662
2023-02-27T10:49:33.891Z,9.443622
2023-02-27T10:50:33.878Z,9.443647
2023-02-27T10:51:33.882Z,9.443553
2023-02-27T10:52:33.884Z,9.443582
2023-02-27T10:53:33.858Z,9.443651
2023-02-27T10:54:33.846Z,9.443434
2023-02-27T10:55:33.854Z,9.443344
2023-02-27T10:56:33.842Z,9.443497
2023-02-27T10:57:33.840Z,9.443677
2023-02-27T10:58:34.871Z,9.443810
2023-02-27T10:59:34.823Z,9.443812
2023-02-27T11:00:34.675Z,9.443749
2023-02-27T11:01:33.883Z,9.443710
2023-02-27T11:02:33.797Z,9.443782
2023-02-27T11:03:33.897Z,9.443806
2023-02-27T11:04:33.887Z,9.443741
2023-02-27T11:05:33.825Z,9.443748
2023-02-27T11:06:33.766Z,9.443640
2023-02-27T11:07:33.808Z,9.443702
2023-02-27T11:08:33.796Z,9.443652
2023-02-27T11:09:33.779Z,9.443522
2023-02-27T11:10:34.677Z,9.443573
2023-02-27T11:11:33.756Z,9.443716
2023-02-27T11:12:33.726Z,9.443798
2023-02-27T11:13:33.759Z,9.443695
2023-02-27T11:14:33.726Z,9.443573
2023-02-27T11:15:33.829Z,9.443793
2023-02-27T11:16:33.701Z,9.443774
2023-02-27T11:17:33.685Z,9.443667
2023-02-27T11:18:33.702Z,9.443704
2023-02-27T11:19:33.676Z,9.443625
2023-02-27T11:20:33.691Z,9.443699
2023-02-27T11:21:33.683Z,9.443675
2023-02-27T11:22:33.685Z,9.443678
2023-02-27T11:23:33.659Z,9.443780
2023-02-27T11:24:34.683Z,9.443693
2023-02-27T11:25:33.661Z,9.443788
2023-02-27T11:26:33.682Z,9.443699
2023-02-27T11:27:33.635Z,9.443703
2023-02-27T11:28:33.840Z,9.443842
2023-02-27T11:29:33.664Z,9.443744
2023-02-27T11:30:33.634Z,9.443705
2023-02-27T11:31:33.711Z,9.443708
2023-02-27T11:32:33.617Z,9.443622
2023-02-27T11:33:33.612Z,9.443751
2023-02-27T11:34:33.662Z,9.443722
2023-02-27T11:35:33.653Z,9.443859
2023-02-27T11:36:33.588Z,9.443824
2023-02-27T11:37:33.606Z,9.443811
2023-02-27T11:38:33.583Z,9.443715
2023-02-27T11:39:33.677Z,9.443806
2023-02-27T11:40:33.655Z,9.443735
2023-02-27T11:41:33.575Z,9.443679
2023-02-27T11:42:33.595Z,9.443654
2023-02-27T11:43:33.561Z,9.443680
2023-02-27T11:44:49.780Z,9.443825